Weather observations for the past three days for
Madison, Madison-Lac Qui Parle County Airport
Imperial (Metric)
Date Time (cdt) Wind (mph) Vis. (mi.) Weather Sky Cond. Temperature (ºF) Relative Humidity Wind Chill (°F) Heat Index (°F) Pressure Precipitation (in)
Air Dwpt 6 hour altimeter (in) sea level (mb) 1 hr 3 hr 6 hr
Max. Min.
31 14:55 W 5 10.00 Fair CLR 83.1 51.3 33% 82 29.91 0.0
31 14:35 NW 7 10.00 Fair CLR 82.9 57.2 42% 82 29.91 0.0
31 14:15 NW 10 10.00 Fair CLR 82.2 53.1 37% 81 29.91 0.0
31 13:55 NW 8 10.00 Fair CLR 82 57.6 43% 82 29.91 0.0
31 13:35 NW 6 10.00 Fair CLR 80.6 57 45% 81 29.91 0.0
31 13:15 Vrbl 6 10.00 A Few Clouds FEW370 80.1 59.4 49% 81 29.91 0.0
31 12:55 NW 8 10.00 Fair CLR 79.2 59.5 79.5 64.2 51% 80 29.91 0.0
31 12:35 N 7 10.00 Fair CLR 78.8 57 47% 80 29.92 0.0
31 12:15 W 6 10.00 Fair CLR 77 64.9 66% 79 29.92 0.0
31 11:55 N 8 10.00 Fair CLR 76.3 65.5 69% 78 29.92 0.0
31 11:35 NW 5 10.00 Fair CLR 75.6 67.5 76% 77 29.91 0.0
31 11:15 N 6 10.00 A Few Clouds FEW250 74.1 69.1 84% 29.92 0.0
31 10:55 NW 9 10.00 A Few Clouds FEW250 73.2 71.1 93% 29.92 0.0
31 10:35 NW 10 10.00 Fair CLR 72.9 71.6 96% 29.91 0.0
31 10:15 NW 10 10.00 A Few Clouds FEW250 72.5 72.3 99% 29.91 0.0
31 09:55 NW 8 10.00 A Few Clouds FEW260 70 70 100% 29.9 0.0
31 09:35 NW 10 10.00 Partly Cloudy SCT260 68.5 68.5 100% 29.9 0.0
31 08:55 NW 8 10.00 Mostly Cloudy BKN260 66.6 66.6 100% 29.89 0.0
31 08:35 NW 12 10.00 Partly Cloudy SCT270 66.6 66.6 100% 29.88 0.0
31 08:15 NW 9 10.00 Fair CLR 66.2 66.2 100% 29.87 0.0
31 07:55 NW 12 10.00 Fair CLR 66 66 100% 29.86 0.0
31 07:35 NW 12 10.00 A Few Clouds FEW140 65.7 65.7 100% 29.85 0.0
31 07:15 NW 8 10.00 Fair CLR 64.8 64.8 100% 29.85 0.0
31 06:55 NW 7 10.00 Fair CLR 65.3 65.3 69.8 65.3 100% 29.83 0.0
31 06:35 NW 7 10.00 Fair CLR 66 66 100% 29.81 0.0
31 06:15 NW 7 7.00 Fair CLR 66.6 66.6 100% 29.8 0.0
31 05:55 NW 6 4.00 Fog/Mist CLR 66.2 66.2 100% 29.79 0.0
31 05:35 NW 5 5.00 Fog/Mist CLR 65.7 65.7 100% 29.79 0.0
31 05:15 W 5 4.00 Fog/Mist CLR 67.1 67.1 100% 29.78 0.0
31 04:55 W 3 8.00 Fair CLR 65.8 65.8 100% 29.77 0.0
31 04:35 W 3 10.00 Fair CLR 67.5 67.5 100% 29.77 0.0
31 04:15 W 5 10.00 Fair CLR 68.4 68.4 100% 29.77 0.0
31 03:55 NW 6 10.00 Fair CLR 69.1 69.1 100% 29.75 0.0
31 03:35 NW 6 10.00 Fair CLR 69.6 69.6 100% 29.75 0.0
31 03:15 NW 6 10.00 Fair CLR 69.1 69.1 100% 29.75 0.0
31 02:55 W 5 2.50 Fog/Mist CLR 68.7 68.7 100% 29.74 0.0
31 02:35 NW 6 0.75 Fog/Mist VV001 68.5 68.5 100% 29.73 0.0
31 02:15 Calm 0.50 Fog VV001 67.1 67.1 100% 29.73 0.0
31 01:55 Calm 0.25 Fog VV001 66.6 66.6 100% 29.73 0.0
31 01:35 Calm 0.50 Fog VV001 66.6 66.6 100% 29.72 0.0
31 01:15 Calm 0.75 Fog/Mist VV001 69.1 69.1 100% 29.71 0.0
31 00:55 SW 3 0.50 Fog VV001 70.5 70.5 83.8 68.9 100% 29.7 0.0
31 00:35 Calm 0.50 Fog VV001 69.3 69.3 100% 29.7 0.0
31 00:15 S 6 0.50 Fog VV001 70.3 70.3 100% 29.69 0.0
30 23:55 SW 5 0.50 Fog VV001 69.3 69.3 100% 29.7 0.0
30 23:35 S 3 0.50 Fog CLR 69.3 69.3 100% 29.7 0.0
30 23:15 W 5 5.00 Fog/Mist CLR 71.1 71.1 100% 29.7 0.0
30 22:55 SW 3 5.00 Fog/Mist CLR 71.6 71.6 100% 29.71 0.0
30 22:35 Calm 10.00 Fair CLR 72.3 72.3 100% 29.7 0.0
30 22:15 E 3 10.00 Fair CLR 73.2 73.2 100% 29.7 0.0
30 21:55 N 5 10.00 Fair CLR 74.8 74.8 100% 29.7 0.0
30 21:35 NW 6 10.00 Fair CLR 75.6 75.6 100% 74 29.69 0.0
30 21:15 NW 5 10.00 Fair CLR 75.9 75.9 100% 75 29.68 0.0
30 20:55 NE 3 10.00 Fair CLR 77 77 100% 78 29.67 0.0
30 20:35 E 6 10.00 Fair CLR 77.9 77.9 100% 80 29.66 0.0
30 20:15 E 8 10.00 Fair CLR 78.8 78.8 100% 83 29.67 0.0
30 19:55 E 8 10.00 Fair CLR 81.1 81.1 100% 91 29.68 0.0
30 19:35 E 9 10.00 Fair CLR 82.4 82.4 100% 96 29.68 0.0
30 19:15 E 10 10.00 Fair CLR 83.7 83.7 100% 101 29.69 0.0
30 18:55 E 8 10.00 Fair CLR 83.1 83.1 86.9 77.5 100% 99 29.69 0.0
30 18:35 E 9 10.00 Fair CLR 83.8 83.8 100% 102 29.69 0.0
30 18:15 E 9 10.00 Fair CLR 85.8 85.1 98% 109 29.7 0.0
30 17:55 E 9 10.00 Fair CLR 86.5 84.7 94% 110 29.7 0.0
30 17:35 E 6 10.00 Fair CLR 86.4 85.1 96% 111 29.7 0.0
30 17:15 E 10 10.00 Fair CLR 85.8 84.7 97% 109 29.7 0.0
30 16:55 E 10 10.00 A Few Clouds FEW027 86 84.6 95% 109 29.7 0.0
30 16:35 E 8 10.00 Partly Cloudy SCT026 85.8 84.7 97% 109 29.7 0.0
30 16:15 E 8 10.00 Mostly Cloudy BKN025 BKN032 85.8 84.4 95% 108 29.71 0.0
30 15:55 SE 8 10.00 Overcast BKN021 OVC030 84 83.7 99% 102 29.72 0.0
30 15:35 E 8 10.00 Mostly Cloudy BKN021 84 83.3 98% 102 29.72 0.0
30 15:15 E 10 10.00 Mostly Cloudy BKN020 BKN026 84.9 83.5 95% 104 29.72 0.0
30 14:55 SE 9 10.00 Overcast OVC018 83.1 82.8 99% 99 29.73 0.0
30 14:35 E 8 10.00 Overcast OVC018 81.5 81.5 100% 93 29.73 0.0
30 14:15 SE 9 10.00 Overcast OVC016 79.9 79.9 100% 87 29.74 0.0
30 13:55 E 12 10.00 Overcast OVC015 78.8 78.8 100% 83 29.74 0.0
30 13:35 E 10 10.00 Overcast OVC014 79.2 79.2 100% 84 29.74 0.0
30 13:15 E 14 10.00 Overcast OVC014 77.5 77.5 100% 79 29.74 0.0
30 12:55 E 14 10.00 Overcast OVC012 77.5 77.5 77.7 65.8 100% 79 29.75 0.0
30 12:35 E 16 10.00 Overcast OVC011 76.6 76.6 100% 77 29.75 0.0
30 12:15 E 13 10.00 Overcast OVC009 75.2 75.2 100% 73 29.75 0.0
30 11:55 E 12 10.00 Overcast OVC007 74.1 74.1 100% 29.77 0.0
30 11:35 E 10 10.00 Overcast OVC006 73.2 73.2 100% 29.77 0.0
30 11:15 E 10 10.00 Overcast OVC006 72.1 72.1 100% 29.77 0.0
30 10:55 E 12 10.00 Overcast OVC006 71.2 71.2 100% 29.77 0.0
30 10:35 E 8 10.00 Overcast OVC005 70.9 70.9 100% 29.77 0.0
30 10:15 E 9 10.00 Overcast OVC004 70.2 70.2 100% 29.77 0.0
30 09:55 E 10 10.00 Overcast OVC004 70 70 100% 29.77 0.0
30 09:35 E 9 10.00 Overcast OVC004 69.8 69.8 100% 29.76 0.0
30 09:15 E 9 10.00 Overcast OVC002 69.4 69.4 100% 29.76 0.0
30 08:55 E 9 10.00 Overcast OVC002 69.1 69.1 100% 29.76 0.0
30 08:35 E 9 10.00 Overcast OVC001 68.4 68.4 100% 29.76 0.0
30 08:15 E 7 10.00 Overcast OVC001 68.2 68.2 100% 29.76 0.0
30 07:55 E 6 10.00 Overcast OVC001 67.3 67.3 100% 29.76 0.0
30 07:35 E 3 9.00 Overcast OVC002 66.7 66.7 100% 29.76 0.0
30 07:15 SE 5 9.00 Overcast OVC003 66.2 66.2 100% 29.76 0.0
30 06:55 E 5 9.00 Overcast OVC003 66 66 68.2 66 100% 29.76 0.0
30 06:35 Calm 9.00 Overcast OVC004 66.6 66.6 100% 29.76 0.0
30 06:15 E 6 9.00 Overcast OVC005 66.9 66.9 100% 29.75 0.0
30 05:55 E 5 10.00 Overcast OVC005 67.5 67.5 100% 29.75 0.0
30 05:35 NE 5 10.00 Overcast OVC005 67.6 67.6 100% 29.76 0.0
30 05:15 NE 6 9.00 Overcast BKN006 OVC042 67.6 67.6 100% 29.76 0.0
30 04:55 NE 6 9.00 Overcast OVC043 67.1 67.1 100% 29.77 0.0
30 04:35 Calm 9.00 Overcast BKN044 OVC160 67.1 67.1 100% 29.78 0.0
30 04:15 E 3 10.00 Overcast BKN160 BKN180 OVC220 67.1 67.1 100% 29.77 0.0
30 03:55 E 3 10.00 Partly Cloudy FEW180 SCT230 67.1 67.1 100% 29.77 0.0
30 03:35 NE 3 9.00 Mostly Cloudy SCT060 BKN190 67.1 67.1 100% 29.76 0.0
30 03:15 E 5 10.00 Partly Cloudy SCT055 SCT065 66.9 66.9 100% 29.76 0.0
30 02:55 NE 3 10.00 Fair CLR 66.9 66.9 100% 29.76 0.0
30 02:35 E 6 10.00 A Few Clouds FEW060 67.6 67.6 100% 29.76 0.0
30 02:15 E 7 10.00 Partly Cloudy SCT060 68 68 100% 29.76 0.0
30 01:55 NE 7 10.00 Fair CLR 67.6 67.6 100% 29.77 0.0
30 01:35 NE 7 10.00 Fair CLR 67.8 67.8 100% 29.78 0.0
30 01:15 E 5 10.00 Fair CLR 67.8 67.8 100% 29.8 0.0
30 00:55 E 5 10.00 Fair CLR 68.7 68.7 78.3 68.7 100% 29.79 0.0
30 00:35 E 7 10.00 Fair CLR 68.9 68.9 100% 29.78 0.0
30 00:15 NE 3 10.00 A Few Clouds FEW210 69.6 69.6 100% 29.8 0.0
29 23:55 E 7 10.00 Partly Cloudy SCT210 69.6 69.6 100% 29.78 0.0
29 23:35 E 6 10.00 A Few Clouds FEW210 70 70 100% 29.79 0.0
29 23:15 E 6 10.00 Fair CLR 70.3 70.3 100% 29.8 0.0
29 22:55 E 7 10.00 Fair CLR 70.9 70.9 100% 29.8 0.0
29 22:35 E 8 10.00 Fair CLR 71.2 71.2 100% 29.8 0.0
29 22:15 E 7 10.00 Fair CLR 71.8 71.8 100% 29.8 0.0
29 21:55 E 8 10.00 Fair CLR 72 72 100% 29.8 0.0
29 21:35 E 8 10.00 Fair CLR 71.8 71.8 100% 29.79 0.0
29 21:15 E 7 10.00 Fair CLR 71.8 71.8 100% 29.79 0.0
29 20:55 E 8 10.00 A Few Clouds FEW190 72.3 72.3 100% 29.77 0.0
29 20:35 E 7 8.00 A Few Clouds FEW190 72.7 72.7 100% 29.77 0.0
29 20:15 E 8 10.00 A Few Clouds FEW190 73.4 73.4 100% 29.76 0.0
29 19:55 E 7 9.00 Mostly Cloudy FEW210 BKN240 75.4 75.4 100% 73 29.77 0.0
29 19:35 E 7 9.00 Mostly Cloudy FEW210 BKN240 77.4 77.4 100% 79 29.77 0.0
29 19:15 E 7 9.00 A Few Clouds FEW250 77.7 77.7 100% 80 29.76 0.0
29 18:55 E 6 10.00 Partly Cloudy SCT260 78.8 77.5 83.5 78.4 96% 83 29.77 0.0
29 18:35 E 8 10.00 A Few Clouds FEW260 79.5 76.8 92% 85 29.75 0.0
29 18:15 E 8 10.00 Fair CLR 80.8 76.1 86% 87 29.75 0.0
29 17:55 E 8 10.00 Fair CLR 82.4 76.5 82% 90 29.76 0.0
29 17:35 E 8 10.00 Fair CLR 82.6 75.7 80% 90 29.76 0.0
29 17:15 E 6 10.00 Fair CLR 82.2 75.4 80% 89 29.76 0.0
29 16:55 E 8 10.00 A Few Clouds FEW190 83.3 75.2 77% 91 29.75 0.0
29 16:35 E 9 10.00 A Few Clouds FEW180 83.5 75.4 77% 91 29.75 0.0
29 16:15 Vrbl 5 10.00 A Few Clouds FEW190 83.5 75.7 78% 92 29.75 0.0
29 15:55 E 9 10.00 Fair CLR 82.6 75.9 80% 90 29.76 0.0
29 15:35 Vrbl 6 10.00 A Few Clouds FEW180 83.3 75.9 79% 92 29.76 0.0
29 15:15 E 7 10.00 Partly Cloudy SCT180 81.3 75.6 83% 88 29.77 0.0
29 14:55 NE 6 10.00 Mostly Cloudy SCT170 BKN200 80.8 75.2 83% 87 29.77 0.0
29 14:35 Vrbl 5 10.00 Mostly Cloudy FEW160 BKN210 83.1 75.6 78% 91 29.77 0.0
29 14:15 Calm 10.00 Mostly Cloudy SCT150 SCT200 BKN340 82 74.8 79% 89 29.77 0.0
29 13:55 SW 3 10.00 Mostly Cloudy FEW070 SCT130 BKN150 BKN360 78.8 75.4 89% 82 29.78 0.0
29 13:35 Calm 10.00 Mostly Cloudy FEW080 SCT130 BKN150 78.8 75.9 91% 83 29.78 0.0
29 13:15 SW 5 10.00 Mostly Cloudy SCT160 BKN190 79 75.7 90% 83 29.77 0.0
29 12:55 S 8 10.00 Partly Cloudy FEW170 SCT190 79 75.7 79.2 67.3 90% 83 29.77 0.0
29 12:35 S 8 10.00 Partly Cloudy FEW022 SCT190 78.3 75.6 91% 81 29.78 0.0
29 12:15 SE 9 10.00 Partly Cloudy SCT190 78.6 75.6 90% 82 29.78 0.0
29 11:55 SE 10 10.00 Partly Cloudy SCT180 SCT380 78.6 75.6 90% 82 29.79 0.0
29 11:35 SE 8 10.00 Partly Cloudy SCT019 SCT180 77.5 76.1 95% 79 29.79 0.0
29 11:15 E 12 10.00 Mostly Cloudy BKN019 BKN180 75.7 75.7 100% 74 29.8 0.0
29 10:55 E 12 10.00 A Few Clouds FEW019 75.9 75.9 100% 75 29.8 0.0
29 10:35 E 7 10.00 A Few Clouds FEW180 75.2 74.7 98% 73 29.81 0.0
29 10:15 E 8 10.00 Mostly Cloudy BKN180 73.9 73.9 100% 29.81 0.0
29 09:55 E 7 10.00 Partly Cloudy FEW150 SCT180 73.8 73.8 100% 29.8 0.0
29 09:35 SE 9 10.00 Fair CLR 73.6 73.6 100% 29.8 0.0
29 09:15 SE 9 10.00 Fair CLR 72.5 72.5 100% 29.81 0.0
29 08:55 SE 9 10.00 Fair CLR 70.5 70.5 100% 29.81 0.0
29 08:35 E 8 10.00 A Few Clouds FEW170 69.8 69.8 100% 29.81 0.0
29 08:15 E 8 10.00 Mostly Cloudy BKN170 68.2 68.2 100% 29.81 0.0
29 07:55 SE 10 10.00 Overcast OVC170 67.6 67.6 100% 29.81 0.0
29 07:35 E 10 10.00 Overcast OVC170 67.3 67.3 100% 29.81 0.0
29 07:15 E 10 10.00 Overcast OVC170 67.3 67.3 100% 29.81 0.0
29 06:55 E 10 10.00 Overcast OVC160 67.1 67.1 70.2 66.9 100% 29.8 0.0 0.01
29 06:35 E 9 10.00 Overcast OVC160 66.9 66.9 100% 29.8 0.0
29 06:15 E 9 10.00 Overcast BKN160 OVC180 67.1 67.1 100% 29.8 0.0
29 05:55 SE 10 10.00 Overcast FEW065 OVC170 67.6 67.6 100% 29.79 0.0
29 05:35 E 10 10.00 Overcast SCT070 OVC180 67.6 67.6 100% 29.78 0.0
29 05:15 E 8 10.00 Overcast BKN070 OVC160 68.4 68.4 100% 29.8 0.0
29 04:55 SE 9 10.00 Mostly Cloudy SCT070 BKN180 BKN200 69.1 69.1 100% 29.8 0.0
29 04:35 SE 10 10.00 Mostly Cloudy BKN190 68.7 68.7 100% 29.8 0.0
29 04:15 S 9 G 20 10.00 Mostly Cloudy BKN200 69.8 69.8 100% 29.81 0.0
29 03:55 S 9 10.00 Mostly Cloudy FEW110 BKN200 70.2 70.2 100% 29.85 0.0 0.01
29 03:35 S 12 10.00 Partly Cloudy SCT110 69.4 69.4 100% 29.85 0.0
29 03:15 S 12 10.00 Mostly Cloudy SCT100 BKN120 BKN190 70 70 100% 29.87 0.0
29 02:55 SE 13 10.00 Mostly Cloudy FEW036 SCT080 BKN100 BKN130 69.6 69.6 100% 29.86 0.0 0.01
29 02:35 SE 7 6.00 Light Rain Fog/Mist Thunderstorm in Vicinity SCT039 SCT085 BKN110 BKN130 68.5 68.5 100% 29.87 0.0
29 02:15 Vrbl 3 9.00 Light Rain SCT070 SCT110 68.5 68.5 100% 29.88 0.0
29 01:55 E 7 10.00 Mostly Cloudy SCT070 BKN130 68 68 100% 29.88 0.0
29 01:35 E 5 10.00 Mostly Cloudy BKN130 BKN160 68.4 68.4 100% 29.88 0.0
29 01:15 SE 6 10.00 Mostly Cloudy BKN130 BKN150 68.7 68.7 100% 29.88 0.0
29 00:55 SE 13 10.00 Overcast OVC130 68.9 68.9 78.3 68.4 100% 29.86 0.0
29 00:35 E 9 10.00 Overcast OVC130 68.4 68.4 100% 29.88 0.0
29 00:15 E 7 10.00 Overcast SCT095 OVC130 69.1 69.1 100% 29.89 0.0
28 23:55 NE 5 10.00 Overcast FEW095 OVC130 70.2 70.2 100% 29.9 0.0
28 23:35 SE 12 10.00 Mostly Cloudy FEW095 BKN130 70.3 70.3 100% 29.88 0.0
28 23:15 SE 10 10.00 Overcast OVC130 71.4 71.4 100% 29.89 0.0
28 22:55 SE 9 10.00 Overcast BKN140 OVC170 71.6 71.6 100% 29.9 0.0
28 22:35 SE 6 10.00 Overcast OVC160 71.4 71.4 100% 29.89 0.0
28 22:15 SE 13 10.00 Mostly Cloudy SCT150 BKN180 BKN210 72.3 71.4 97% 29.9 0.0
28 21:55 SE 9 10.00 Partly Cloudy SCT140 SCT160 72.9 70.9 94% 29.92 0.0
28 21:35 E 10 10.00 Partly Cloudy SCT160 72.9 71.1 94% 29.9 0.0
28 21:15 SE 10 9.00 Light Rain BKN160 BKN180 73.2 70.7 92% 29.91 0.0
28 20:55 SE 9 10.00 Mostly Cloudy BKN180 73.6 70.2 89% 29.9 0.0
28 20:35 SE 12 10.00 Overcast OVC170 73.9 69.4 86% 29.9 0.0
28 20:15 SE 10 10.00 Overcast FEW140 OVC170 74.5 68.9 83% 29.91 0.0
28 19:55 SE 9 10.00 Overcast BKN140 OVC180 75.4 68 78% 76 29.92 0.0
28 19:35 SE 8 9.00 Overcast SCT150 OVC180 76.5 67.5 74% 78 29.93 0.0
28 19:15 SE 10 8.00 Overcast BKN160 OVC190 77.7 67.1 70% 80 29.92 0.0
28 18:55 SE 14 9.00 Mostly Cloudy BKN170 BKN190 78.8 66.6 83.5 78.8 66% 81 29.92 0.0
28 18:35 SE 14 9.00 Mostly Cloudy SCT150 SCT180 BKN200 79.5 66.7 65% 82 29.93 0.0
28 18:15 SE 13 10.00 Partly Cloudy FEW180 SCT200 80.6 66.7 63% 83 29.93 0.0
28 17:55 SE 12 10.00 Mostly Cloudy SCT160 BKN200 80.6 65.7 60% 83 29.94 0.0
28 17:35 SE 12 10.00 Overcast BKN160 OVC200 81 66 61% 83 29.94 0.0
28 17:15 SE 15 10.00 Mostly Cloudy SCT150 BKN190 82 65.1 57% 84 29.95 0.0
28 16:55 SE 14 10.00 Partly Cloudy SCT160 SCT200 82.9 64.9 55% 85 29.96 0.0
28 16:35 SE 14 G 20 10.00 Mostly Cloudy FEW170 BKN190 82.4 65.1 56% 84 29.96 0.0
28 16:15 SE 13 10.00 Mostly Cloudy BKN180 BKN200 81.9 66.2 59% 84 29.97 0.0
28 15:55 SE 13 10.00 Mostly Cloudy BKN190 81.5 65.5 58% 83 29.98 0.0
28 15:35 SE 10 10.00 A Few Clouds FEW160 80.4 66.2 62% 83 29.99 0.0
28 15:15 SE 8 9.00 Mostly Cloudy BKN180 BKN200 80.6 66.9 63% 83 30 0.0
Date Time (cdt) Wind (mph) Vis. (mi.) Weather Sky Cond. Air Dwpt Max. Min. Relative Humidity Wind Chill (°F) Heat Index (°F) altimeter (in) sea level (mb) 1 hr 3 hr 6 hr
6 hour
Temperature (ºF) Pressure Precipitation (in)